sensor_id;sensor_type;location;lat;lon;timestamp;P1;durP1;ratioP1;P2;durP2;ratioP2
69172;SDS011;56280;49.662;8.408;2023-06-26T00:00:23;10.80;;;7.05;;
69172;SDS011;56280;49.662;8.408;2023-06-26T00:03:08;11.50;;;6.90;;
69172;SDS011;56280;49.662;8.408;2023-06-26T00:05:42;11.87;;;6.63;;
69172;SDS011;56280;49.662;8.408;2023-06-26T00:08:17;10.50;;;6.80;;
69172;SDS011;56280;49.662;8.408;2023-06-26T00:10:55;10.45;;;6.78;;
69172;SDS011;56280;49.662;8.408;2023-06-26T00:13:24;10.95;;;6.63;;
69172;SDS011;56280;49.662;8.408;2023-06-26T00:15:52;11.90;;;7.07;;
69172;SDS011;56280;49.662;8.408;2023-06-26T00:18:30;12.93;;;6.97;;
69172;SDS011;56280;49.662;8.408;2023-06-26T00:21:13;12.17;;;7.70;;
69172;SDS011;56280;49.662;8.408;2023-06-26T00:23:38;20.17;;;17.33;;
69172;SDS011;56280;49.662;8.408;2023-06-26T00:26:06;17.70;;;15.63;;
69172;SDS011;56280;49.662;8.408;2023-06-26T00:28:44;13.25;;;9.73;;
69172;SDS011;56280;49.662;8.408;2023-06-26T00:31:20;34.38;;;27.60;;
69172;SDS011;56280;49.662;8.408;2023-06-26T00:33:54;23.45;;;18.25;;
69172;SDS011;56280;49.662;8.408;2023-06-26T00:36:28;27.88;;;21.25;;
69172;SDS011;56280;49.662;8.408;2023-06-26T00:39:00;17.80;;;11.90;;
69172;SDS011;56280;49.662;8.408;2023-06-26T00:41:26;14.60;;;7.90;;
69172;SDS011;56280;49.662;8.408;2023-06-26T00:43:54;13.77;;;8.95;;
69172;SDS011;56280;49.662;8.408;2023-06-26T00:46:19;11.60;;;8.77;;
69172;SDS011;56280;49.662;8.408;2023-06-26T00:48:45;13.67;;;9.00;;
69172;SDS011;56280;49.662;8.408;2023-06-26T00:51:18;12.35;;;9.10;;
69172;SDS011;56280;49.662;8.408;2023-06-26T00:53:44;12.38;;;8.15;;
69172;SDS011;56280;49.662;8.408;2023-06-26T00:56:09;13.87;;;8.27;;
69172;SDS011;56280;49.662;8.408;2023-06-26T00:58:39;10.45;;;7.55;;
69172;SDS011;56280;49.662;8.408;2023-06-26T01:01:04;11.40;;;7.38;;
69172;SDS011;56280;49.662;8.408;2023-06-26T01:03:33;11.18;;;7.43;;
69172;SDS011;56280;49.662;8.408;2023-06-26T01:05:59;10.43;;;6.90;;
69172;SDS011;56280;49.662;8.408;2023-06-26T01:08:27;10.40;;;7.28;;
69172;SDS011;56280;49.662;8.408;2023-06-26T01:10:54;11.10;;;7.03;;
69172;SDS011;56280;49.662;8.408;2023-06-26T01:13:20;11.97;;;7.80;;
69172;SDS011;56280;49.662;8.408;2023-06-26T01:15:49;11.07;;;7.53;;
69172;SDS011;56280;49.662;8.408;2023-06-26T01:18:14;11.30;;;7.55;;
69172;SDS011;56280;49.662;8.408;2023-06-26T01:20:40;10.38;;;7.25;;
69172;SDS011;56280;49.662;8.408;2023-06-26T01:28:39;9.85;;;6.68;;
69172;SDS011;56280;49.662;8.408;2023-06-26T01:31:18;9.85;;;6.78;;
69172;SDS011;56280;49.662;8.408;2023-06-26T01:33:44;10.60;;;6.93;;
69172;SDS011;56280;49.662;8.408;2023-06-26T01:36:14;10.57;;;7.45;;
69172;SDS011;56280;49.662;8.408;2023-06-26T01:38:59;11.50;;;7.53;;
69172;SDS011;56280;49.662;8.408;2023-06-26T01:57:45;10.90;;;6.65;;
69172;SDS011;56280;49.662;8.408;2023-06-26T02:00:26;10.95;;;6.90;;
69172;SDS011;56280;49.662;8.408;2023-06-26T02:02:57;10.00;;;6.80;;
69172;SDS011;56280;49.662;8.408;2023-06-26T02:05:29;11.32;;;6.97;;
69172;SDS011;56280;49.662;8.408;2023-06-26T02:07:58;10.75;;;7.22;;
69172;SDS011;56280;49.662;8.408;2023-06-26T02:10:23;11.57;;;7.27;;
69172;SDS011;56280;49.662;8.408;2023-06-26T02:12:49;10.80;;;7.05;;
69172;SDS011;56280;49.662;8.408;2023-06-26T02:15:15;11.68;;;7.50;;
69172;SDS011;56280;49.662;8.408;2023-06-26T02:17:40;11.27;;;7.23;;
69172;SDS011;56280;49.662;8.408;2023-06-26T02:20:09;10.47;;;7.03;;
69172;SDS011;56280;49.662;8.408;2023-06-26T02:22:35;10.97;;;7.13;;
69172;SDS011;56280;49.662;8.408;2023-06-26T02:25:01;10.18;;;6.88;;
69172;SDS011;56280;49.662;8.408;2023-06-26T02:27:26;11.13;;;7.20;;
69172;SDS011;56280;49.662;8.408;2023-06-26T02:29:52;10.37;;;7.10;;
69172;SDS011;56280;49.662;8.408;2023-06-26T02:32:17;12.37;;;7.10;;
69172;SDS011;56280;49.662;8.408;2023-06-26T02:34:42;10.97;;;7.27;;
69172;SDS011;56280;49.662;8.408;2023-06-26T02:37:10;9.87;;;7.07;;
69172;SDS011;56280;49.662;8.408;2023-06-26T02:39:42;11.05;;;7.25;;
69172;SDS011;56280;49.662;8.408;2023-06-26T02:42:18;9.38;;;7.20;;
69172;SDS011;56280;49.662;8.408;2023-06-26T02:44:43;11.25;;;7.30;;
69172;SDS011;56280;49.662;8.408;2023-06-26T02:47:09;11.33;;;7.50;;
69172;SDS011;56280;49.662;8.408;2023-06-26T02:49:43;10.52;;;7.03;;
69172;SDS011;56280;49.662;8.408;2023-06-26T02:52:08;10.37;;;7.10;;
69172;SDS011;56280;49.662;8.408;2023-06-26T02:54:36;10.23;;;6.67;;
69172;SDS011;56280;49.662;8.408;2023-06-26T02:57:02;9.77;;;6.73;;
69172;SDS011;56280;49.662;8.408;2023-06-26T02:59:27;10.07;;;6.82;;
69172;SDS011;56280;49.662;8.408;2023-06-26T03:01:56;11.03;;;7.00;;
69172;SDS011;56280;49.662;8.408;2023-06-26T03:04:24;10.60;;;7.45;;
69172;SDS011;56280;49.662;8.408;2023-06-26T03:06:49;11.57;;;7.50;;
69172;SDS011;56280;49.662;8.408;2023-06-26T03:09:14;10.38;;;7.30;;
69172;SDS011;56280;49.662;8.408;2023-06-26T03:11:41;11.07;;;7.82;;
69172;SDS011;56280;49.662;8.408;2023-06-26T03:14:06;11.30;;;7.50;;
69172;SDS011;56280;49.662;8.408;2023-06-26T03:16:32;11.93;;;7.53;;
69172;SDS011;56280;49.662;8.408;2023-06-26T03:18:57;11.10;;;7.63;;
69172;SDS011;56280;49.662;8.408;2023-06-26T03:21:22;11.23;;;7.87;;
69172;SDS011;56280;49.662;8.408;2023-06-26T03:23:48;13.73;;;8.10;;
69172;SDS011;56280;49.662;8.408;2023-06-26T03:26:24;11.53;;;8.10;;
69172;SDS011;56280;49.662;8.408;2023-06-26T03:28:58;11.40;;;7.32;;
69172;SDS011;56280;49.662;8.408;2023-06-26T03:31:41;11.05;;;7.25;;
69172;SDS011;56280;49.662;8.408;2023-06-26T03:34:50;9.95;;;6.80;;
69172;SDS011;56280;49.662;8.408;2023-06-26T03:37:26;9.80;;;6.67;;
69172;SDS011;56280;49.662;8.408;2023-06-26T03:40:19;12.03;;;7.50;;
69172;SDS011;56280;49.662;8.408;2023-06-26T03:43:02;11.77;;;6.80;;
69172;SDS011;56280;49.662;8.408;2023-06-26T03:45:36;15.07;;;6.78;;
69172;SDS011;56280;49.662;8.408;2023-06-26T03:48:11;10.02;;;6.80;;
69172;SDS011;56280;49.662;8.408;2023-06-26T03:50:55;12.93;;;6.90;;
69172;SDS011;56280;49.662;8.408;2023-06-26T03:53:31;11.00;;;7.03;;
69172;SDS011;56280;49.662;8.408;2023-06-26T03:56:03;11.77;;;7.05;;
69172;SDS011;56280;49.662;8.408;2023-06-26T03:58:48;11.10;;;7.07;;
69172;SDS011;56280;49.662;8.408;2023-06-26T04:01:57;10.02;;;6.60;;
69172;SDS011;56280;49.662;8.408;2023-06-26T04:04:36;10.75;;;7.13;;
69172;SDS011;56280;49.662;8.408;2023-06-26T04:07:34;9.85;;;6.85;;
69172;SDS011;56280;49.662;8.408;2023-06-26T04:10:04;10.18;;;7.22;;
69172;SDS011;56280;49.662;8.408;2023-06-26T04:15:45;10.60;;;6.70;;
69172;SDS011;56280;49.662;8.408;2023-06-26T04:18:22;10.95;;;7.00;;
69172;SDS011;56280;49.662;8.408;2023-06-26T04:21:03;11.20;;;7.45;;
69172;SDS011;56280;49.662;8.408;2023-06-26T04:24:09;10.25;;;6.85;;
69172;SDS011;56280;49.662;8.408;2023-06-26T04:26:40;11.95;;;7.80;;
69172;SDS011;56280;49.662;8.408;2023-06-26T04:29:31;11.73;;;7.55;;
69172;SDS011;56280;49.662;8.408;2023-06-26T04:32:12;11.18;;;7.50;;
69172;SDS011;56280;49.662;8.408;2023-06-26T04:34:42;10.85;;;8.00;;
69172;SDS011;56280;49.662;8.408;2023-06-26T04:37:08;13.23;;;8.70;;
69172;SDS011;56280;49.662;8.408;2023-06-26T04:39:42;12.70;;;7.85;;
69172;SDS011;56280;49.662;8.408;2023-06-26T04:42:07;10.07;;;7.47;;
69172;SDS011;56280;49.662;8.408;2023-06-26T04:44:34;11.43;;;7.65;;
69172;SDS011;56280;49.662;8.408;2023-06-26T04:47:06;11.25;;;7.68;;
69172;SDS011;56280;49.662;8.408;2023-06-26T04:49:32;10.63;;;7.35;;
69172;SDS011;56280;49.662;8.408;2023-06-26T04:52:07;10.80;;;7.30;;
69172;SDS011;56280;49.662;8.408;2023-06-26T04:54:32;11.38;;;8.18;;
69172;SDS011;56280;49.662;8.408;2023-06-26T04:57:00;10.70;;;7.27;;
69172;SDS011;56280;49.662;8.408;2023-06-26T04:59:29;11.98;;;8.50;;
69172;SDS011;56280;49.662;8.408;2023-06-26T05:01:57;11.32;;;8.25;;
69172;SDS011;56280;49.662;8.408;2023-06-26T05:04:22;10.90;;;8.07;;
69172;SDS011;56280;49.662;8.408;2023-06-26T05:06:48;11.77;;;8.37;;
69172;SDS011;56280;49.662;8.408;2023-06-26T05:09:15;11.85;;;8.40;;
69172;SDS011;56280;49.662;8.408;2023-06-26T05:11:41;13.57;;;8.80;;
69172;SDS011;56280;49.662;8.408;2023-06-26T05:14:06;11.60;;;8.43;;
69172;SDS011;56280;49.662;8.408;2023-06-26T05:16:39;12.03;;;8.37;;
69172;SDS011;56280;49.662;8.408;2023-06-26T05:19:08;13.97;;;8.10;;
69172;SDS011;56280;49.662;8.408;2023-06-26T05:21:34;11.73;;;8.52;;
69172;SDS011;56280;49.662;8.408;2023-06-26T05:24:08;12.35;;;8.43;;
69172;SDS011;56280;49.662;8.408;2023-06-26T05:26:45;11.87;;;8.37;;
69172;SDS011;56280;49.662;8.408;2023-06-26T05:29:14;11.63;;;7.72;;
69172;SDS011;56280;49.662;8.408;2023-06-26T05:31:41;12.68;;;8.20;;
69172;SDS011;56280;49.662;8.408;2023-06-26T05:34:06;11.07;;;8.38;;
69172;SDS011;56280;49.662;8.408;2023-06-26T05:36:33;12.45;;;7.90;;
69172;SDS011;56280;49.662;8.408;2023-06-26T05:39:00;13.25;;;8.38;;
69172;SDS011;56280;49.662;8.408;2023-06-26T05:41:26;11.97;;;8.13;;
69172;SDS011;56280;49.662;8.408;2023-06-26T05:43:51;12.57;;;8.25;;
69172;SDS011;56280;49.662;8.408;2023-06-26T05:46:19;11.45;;;8.40;;
69172;SDS011;56280;49.662;8.408;2023-06-26T05:48:44;12.30;;;8.47;;
69172;SDS011;56280;49.662;8.408;2023-06-26T05:51:10;11.97;;;8.57;;
69172;SDS011;56280;49.662;8.408;2023-06-26T05:53:35;13.30;;;8.07;;
69172;SDS011;56280;49.662;8.408;2023-06-26T05:56:01;11.68;;;8.13;;
69172;SDS011;56280;49.662;8.408;2023-06-26T05:58:26;12.97;;;8.80;;
69172;SDS011;56280;49.662;8.408;2023-06-26T06:00:54;12.20;;;8.93;;
69172;SDS011;56280;49.662;8.408;2023-06-26T06:03:20;12.90;;;8.50;;
69172;SDS011;56280;49.662;8.408;2023-06-26T06:05:45;12.60;;;8.60;;
69172;SDS011;56280;49.662;8.408;2023-06-26T06:08:11;11.97;;;8.47;;
69172;SDS011;56280;49.662;8.408;2023-06-26T06:10:36;12.87;;;9.03;;
69172;SDS011;56280;49.662;8.408;2023-06-26T06:13:01;13.03;;;9.13;;
69172;SDS011;56280;49.662;8.408;2023-06-26T06:15:26;12.83;;;9.17;;
69172;SDS011;56280;49.662;8.408;2023-06-26T06:17:52;11.73;;;8.63;;
69172;SDS011;56280;49.662;8.408;2023-06-26T06:20:17;11.80;;;8.30;;
69172;SDS011;56280;49.662;8.408;2023-06-26T06:22:44;11.73;;;8.50;;
69172;SDS011;56280;49.662;8.408;2023-06-26T06:25:10;13.60;;;8.82;;
69172;SDS011;56280;49.662;8.408;2023-06-26T06:27:36;12.77;;;8.70;;
69172;SDS011;56280;49.662;8.408;2023-06-26T06:30:01;12.57;;;8.53;;
69172;SDS011;56280;49.662;8.408;2023-06-26T06:32:27;14.75;;;8.68;;
69172;SDS011;56280;49.662;8.408;2023-06-26T06:34:52;13.87;;;9.47;;
69172;SDS011;56280;49.662;8.408;2023-06-26T06:37:18;13.57;;;9.40;;
69172;SDS011;56280;49.662;8.408;2023-06-26T06:39:43;12.23;;;9.10;;
69172;SDS011;56280;49.662;8.408;2023-06-26T06:42:08;13.43;;;8.83;;
69172;SDS011;56280;49.662;8.408;2023-06-26T06:44:33;12.90;;;9.47;;
69172;SDS011;56280;49.662;8.408;2023-06-26T06:46:59;13.50;;;9.00;;
69172;SDS011;56280;49.662;8.408;2023-06-26T06:49:24;13.53;;;9.20;;
69172;SDS011;56280;49.662;8.408;2023-06-26T06:51:49;14.67;;;9.43;;
69172;SDS011;56280;49.662;8.408;2023-06-26T06:54:17;14.63;;;9.83;;
69172;SDS011;56280;49.662;8.408;2023-06-26T06:56:43;12.32;;;8.55;;
69172;SDS011;56280;49.662;8.408;2023-06-26T06:59:08;12.70;;;8.87;;
69172;SDS011;56280;49.662;8.408;2023-06-26T07:01:33;15.43;;;9.17;;
69172;SDS011;56280;49.662;8.408;2023-06-26T07:03:59;12.17;;;8.50;;
69172;SDS011;56280;49.662;8.408;2023-06-26T07:06:24;10.90;;;8.47;;
69172;SDS011;56280;49.662;8.408;2023-06-26T07:08:49;11.90;;;8.63;;
69172;SDS011;56280;49.662;8.408;2023-06-26T07:11:15;12.33;;;8.50;;
69172;SDS011;56280;49.662;8.408;2023-06-26T07:13:40;15.27;;;8.87;;
69172;SDS011;56280;49.662;8.408;2023-06-26T07:16:06;11.57;;;8.30;;
69172;SDS011;56280;49.662;8.408;2023-06-26T07:18:31;12.93;;;8.57;;
69172;SDS011;56280;49.662;8.408;2023-06-26T07:20:56;11.23;;;8.23;;
69172;SDS011;56280;49.662;8.408;2023-06-26T07:23:22;10.48;;;7.97;;
69172;SDS011;56280;49.662;8.408;2023-06-26T07:25:48;11.63;;;7.60;;
69172;SDS011;56280;49.662;8.408;2023-06-26T07:28:13;10.40;;;7.47;;
69172;SDS011;56280;49.662;8.408;2023-06-26T07:30:39;10.03;;;7.17;;
69172;SDS011;56280;49.662;8.408;2023-06-26T07:33:04;10.82;;;7.35;;
69172;SDS011;56280;49.662;8.408;2023-06-26T07:35:30;10.83;;;7.03;;
69172;SDS011;56280;49.662;8.408;2023-06-26T07:37:55;10.43;;;7.30;;
69172;SDS011;56280;49.662;8.408;2023-06-26T07:40:20;11.63;;;7.53;;
69172;SDS011;56280;49.662;8.408;2023-06-26T07:42:46;10.53;;;7.40;;
69172;SDS011;56280;49.662;8.408;2023-06-26T07:45:11;9.50;;;7.40;;
69172;SDS011;56280;49.662;8.408;2023-06-26T07:47:37;9.88;;;7.20;;
69172;SDS011;56280;49.662;8.408;2023-06-26T07:50:03;8.73;;;6.93;;
69172;SDS011;56280;49.662;8.408;2023-06-26T07:52:29;9.80;;;6.57;;
69172;SDS011;56280;49.662;8.408;2023-06-26T07:54:58;9.40;;;6.93;;
69172;SDS011;56280;49.662;8.408;2023-06-26T07:57:23;10.13;;;7.20;;
69172;SDS011;56280;49.662;8.408;2023-06-26T07:59:49;8.43;;;6.70;;
69172;SDS011;56280;49.662;8.408;2023-06-26T08:02:15;9.75;;;7.00;;
69172;SDS011;56280;49.662;8.408;2023-06-26T08:04:40;9.57;;;6.90;;
69172;SDS011;56280;49.662;8.408;2023-06-26T08:07:06;11.07;;;6.83;;
69172;SDS011;56280;49.662;8.408;2023-06-26T08:09:31;8.93;;;6.70;;
69172;SDS011;56280;49.662;8.408;2023-06-26T08:11:57;11.38;;;6.93;;
69172;SDS011;56280;49.662;8.408;2023-06-26T08:14:23;7.83;;;6.43;;
69172;SDS011;56280;49.662;8.408;2023-06-26T08:16:51;9.18;;;6.70;;
69172;SDS011;56280;49.662;8.408;2023-06-26T08:19:16;9.35;;;6.95;;
69172;SDS011;56280;49.662;8.408;2023-06-26T08:21:42;9.43;;;6.70;;
69172;SDS011;56280;49.662;8.408;2023-06-26T08:24:09;8.70;;;6.40;;
69172;SDS011;56280;49.662;8.408;2023-06-26T08:26:34;8.90;;;6.33;;
69172;SDS011;56280;49.662;8.408;2023-06-26T08:29:00;9.05;;;6.60;;
69172;SDS011;56280;49.662;8.408;2023-06-26T08:31:26;8.57;;;6.43;;
69172;SDS011;56280;49.662;8.408;2023-06-26T08:33:51;11.27;;;6.70;;
69172;SDS011;56280;49.662;8.408;2023-06-26T08:36:16;9.77;;;6.97;;
69172;SDS011;56280;49.662;8.408;2023-06-26T08:38:42;9.23;;;7.00;;
69172;SDS011;56280;49.662;8.408;2023-06-26T08:41:07;9.07;;;6.70;;
69172;SDS011;56280;49.662;8.408;2023-06-26T08:43:33;8.38;;;6.40;;
69172;SDS011;56280;49.662;8.408;2023-06-26T08:45:59;8.82;;;6.57;;
69172;SDS011;56280;49.662;8.408;2023-06-26T08:48:25;10.10;;;6.33;;
69172;SDS011;56280;49.662;8.408;2023-06-26T08:50:52;9.27;;;6.70;;
69172;SDS011;56280;49.662;8.408;2023-06-26T08:55:53;9.27;;;6.20;;
69172;SDS011;56280;49.662;8.408;2023-06-26T08:58:21;9.97;;;6.50;;
69172;SDS011;56280;49.662;8.408;2023-06-26T09:00:47;11.23;;;6.10;;
69172;SDS011;56280;49.662;8.408;2023-06-26T09:03:14;8.30;;;5.70;;
69172;SDS011;56280;49.662;8.408;2023-06-26T09:05:40;8.75;;;5.40;;
69172;SDS011;56280;49.662;8.408;2023-06-26T09:08:05;8.23;;;5.77;;
69172;SDS011;56280;49.662;8.408;2023-06-26T09:10:31;8.25;;;5.20;;
69172;SDS011;56280;49.662;8.408;2023-06-26T09:12:57;7.63;;;5.50;;
69172;SDS011;56280;49.662;8.408;2023-06-26T09:15:23;7.78;;;5.40;;
69172;SDS011;56280;49.662;8.408;2023-06-26T09:17:48;8.05;;;5.40;;
69172;SDS011;56280;49.662;8.408;2023-06-26T09:20:13;7.27;;;5.47;;
69172;SDS011;56280;49.662;8.408;2023-06-26T09:22:40;7.00;;;5.63;;
69172;SDS011;56280;49.662;8.408;2023-06-26T09:25:07;8.32;;;6.00;;
69172;SDS011;56280;49.662;8.408;2023-06-26T09:27:34;7.65;;;5.47;;
69172;SDS011;56280;49.662;8.408;2023-06-26T09:30:01;8.02;;;5.57;;
69172;SDS011;56280;49.662;8.408;2023-06-26T09:32:27;8.20;;;5.85;;
69172;SDS011;56280;49.662;8.408;2023-06-26T09:34:53;9.20;;;5.73;;
69172;SDS011;56280;49.662;8.408;2023-06-26T09:37:20;7.30;;;5.82;;
69172;SDS011;56280;49.662;8.408;2023-06-26T09:39:46;8.80;;;5.78;;
69172;SDS011;56280;49.662;8.408;2023-06-26T09:42:13;7.90;;;5.80;;
69172;SDS011;56280;49.662;8.408;2023-06-26T09:44:43;7.35;;;5.50;;
69172;SDS011;56280;49.662;8.408;2023-06-26T09:47:12;7.32;;;5.20;;
69172;SDS011;56280;49.662;8.408;2023-06-26T09:49:42;8.63;;;5.55;;
69172;SDS011;56280;49.662;8.408;2023-06-26T09:52:08;7.10;;;5.38;;
69172;SDS011;56280;49.662;8.408;2023-06-26T09:54:33;8.80;;;5.23;;
69172;SDS011;56280;49.662;8.408;2023-06-26T09:57:09;8.32;;;5.20;;
69172;SDS011;56280;49.662;8.408;2023-06-26T09:59:39;6.78;;;5.30;;
69172;SDS011;56280;49.662;8.408;2023-06-26T10:02:05;11.52;;;5.97;;
69172;SDS011;56280;49.662;8.408;2023-06-26T10:04:31;8.70;;;5.30;;
69172;SDS011;56280;49.662;8.408;2023-06-26T10:06:56;8.07;;;5.63;;
69172;SDS011;56280;49.662;8.408;2023-06-26T10:09:23;7.90;;;5.30;;
69172;SDS011;56280;49.662;8.408;2023-06-26T10:14:21;8.23;;;5.32;;
69172;SDS011;56280;49.662;8.408;2023-06-26T10:16:51;7.43;;;5.03;;
69172;SDS011;56280;49.662;8.408;2023-06-26T10:19:18;8.23;;;4.78;;
69172;SDS011;56280;49.662;8.408;2023-06-26T10:21:48;8.35;;;5.15;;
69172;SDS011;56280;49.662;8.408;2023-06-26T10:24:16;7.20;;;5.00;;
69172;SDS011;56280;49.662;8.408;2023-06-26T10:26:44;8.18;;;5.28;;
69172;SDS011;56280;49.662;8.408;2023-06-26T10:29:11;7.22;;;4.95;;
69172;SDS011;56280;49.662;8.408;2023-06-26T10:31:39;7.90;;;5.17;;
69172;SDS011;56280;49.662;8.408;2023-06-26T10:34:07;7.50;;;5.38;;
69172;SDS011;56280;49.662;8.408;2023-06-26T10:36:33;10.03;;;5.40;;
69172;SDS011;56280;49.662;8.408;2023-06-26T10:39:04;10.20;;;5.63;;
69172;SDS011;56280;49.662;8.408;2023-06-26T10:41:35;8.82;;;5.43;;
69172;SDS011;56280;49.662;8.408;2023-06-26T10:46:27;7.90;;;5.50;;
69172;SDS011;56280;49.662;8.408;2023-06-26T10:48:58;7.87;;;5.40;;
69172;SDS011;56280;49.662;8.408;2023-06-26T10:51:25;9.40;;;5.47;;
69172;SDS011;56280;49.662;8.408;2023-06-26T10:53:54;9.17;;;5.50;;
69172;SDS011;56280;49.662;8.408;2023-06-26T10:59:27;7.50;;;5.63;;
69172;SDS011;56280;49.662;8.408;2023-06-26T11:01:54;7.18;;;5.40;;
69172;SDS011;56280;49.662;8.408;2023-06-26T11:04:40;7.22;;;5.50;;
69172;SDS011;56280;49.662;8.408;2023-06-26T11:07:16;7.32;;;5.25;;
69172;SDS011;56280;49.662;8.408;2023-06-26T11:17:35;8.37;;;5.87;;
69172;SDS011;56280;49.662;8.408;2023-06-26T11:20:02;6.78;;;5.10;;
69172;SDS011;56280;49.662;8.408;2023-06-26T11:22:33;8.82;;;5.55;;
69172;SDS011;56280;49.662;8.408;2023-06-26T11:25:00;9.13;;;5.67;;
69172;SDS011;56280;49.662;8.408;2023-06-26T11:27:35;8.90;;;5.57;;
69172;SDS011;56280;49.662;8.408;2023-06-26T11:30:06;6.43;;;5.20;;
69172;SDS011;56280;49.662;8.408;2023-06-26T11:32:34;7.78;;;5.40;;
69172;SDS011;56280;49.662;8.408;2023-06-26T11:35:00;7.82;;;4.88;;
69172;SDS011;56280;49.662;8.408;2023-06-26T11:37:26;8.40;;;5.50;;
69172;SDS011;56280;49.662;8.408;2023-06-26T11:39:51;7.63;;;5.03;;
69172;SDS011;56280;49.662;8.408;2023-06-26T11:42:17;7.63;;;5.10;;
69172;SDS011;56280;49.662;8.408;2023-06-26T11:44:44;7.10;;;5.00;;
69172;SDS011;56280;49.662;8.408;2023-06-26T11:47:13;7.23;;;4.87;;
69172;SDS011;56280;49.662;8.408;2023-06-26T11:49:43;7.32;;;4.75;;
69172;SDS011;56280;49.662;8.408;2023-06-26T11:52:09;7.75;;;4.85;;
69172;SDS011;56280;49.662;8.408;2023-06-26T11:54:34;6.80;;;4.83;;
69172;SDS011;56280;49.662;8.408;2023-06-26T11:57:00;7.40;;;4.80;;
69172;SDS011;56280;49.662;8.408;2023-06-26T11:59:35;7.13;;;4.85;;
69172;SDS011;56280;49.662;8.408;2023-06-26T12:02:12;7.35;;;4.70;;
69172;SDS011;56280;49.662;8.408;2023-06-26T12:04:42;6.80;;;4.80;;
69172;SDS011;56280;49.662;8.408;2023-06-26T12:07:09;8.30;;;5.35;;
69172;SDS011;56280;49.662;8.408;2023-06-26T12:09:38;8.10;;;5.10;;
69172;SDS011;56280;49.662;8.408;2023-06-26T12:12:06;7.35;;;4.93;;
69172;SDS011;56280;49.662;8.408;2023-06-26T12:14:34;7.38;;;5.00;;
69172;SDS011;56280;49.662;8.408;2023-06-26T12:17:08;9.67;;;5.03;;
69172;SDS011;56280;49.662;8.408;2023-06-26T12:19:38;8.27;;;5.50;;
69172;SDS011;56280;49.662;8.408;2023-06-26T12:22:07;7.47;;;5.03;;
69172;SDS011;56280;49.662;8.408;2023-06-26T12:24:35;8.15;;;5.03;;
69172;SDS011;56280;49.662;8.408;2023-06-26T12:27:02;7.38;;;5.00;;
69172;SDS011;56280;49.662;8.408;2023-06-26T12:29:31;7.95;;;5.22;;
69172;SDS011;56280;49.662;8.408;2023-06-26T12:31:58;8.93;;;5.10;;
69172;SDS011;56280;49.662;8.408;2023-06-26T12:34:27;7.20;;;5.20;;
69172;SDS011;56280;49.662;8.408;2023-06-26T12:37:04;7.82;;;5.57;;
69172;SDS011;56280;49.662;8.408;2023-06-26T12:39:44;8.50;;;5.70;;
69172;SDS011;56280;49.662;8.408;2023-06-26T12:42:15;9.15;;;5.72;;
69172;SDS011;56280;49.662;8.408;2023-06-26T12:44:42;9.63;;;6.20;;
69172;SDS011;56280;49.662;8.408;2023-06-26T12:47:09;13.65;;;5.55;;
69172;SDS011;56280;49.662;8.408;2023-06-26T12:49:41;9.57;;;5.55;;
69172;SDS011;56280;49.662;8.408;2023-06-26T12:52:08;9.82;;;6.63;;
69172;SDS011;56280;49.662;8.408;2023-06-26T12:54:34;10.00;;;6.90;;
69172;SDS011;56280;49.662;8.408;2023-06-26T12:57:01;10.35;;;6.80;;
69172;SDS011;56280;49.662;8.408;2023-06-26T12:59:28;9.93;;;6.93;;
69172;SDS011;56280;49.662;8.408;2023-06-26T13:01:54;10.18;;;6.97;;
69172;SDS011;56280;49.662;8.408;2023-06-26T13:04:19;10.43;;;6.93;;
69172;SDS011;56280;49.662;8.408;2023-06-26T13:06:45;10.23;;;6.30;;
69172;SDS011;56280;49.662;8.408;2023-06-26T13:09:10;9.77;;;6.37;;
69172;SDS011;56280;49.662;8.408;2023-06-26T13:11:36;10.73;;;6.13;;
69172;SDS011;56280;49.662;8.408;2023-06-26T13:14:02;9.35;;;5.82;;
69172;SDS011;56280;49.662;8.408;2023-06-26T13:16:27;8.57;;;5.50;;
69172;SDS011;56280;49.662;8.408;2023-06-26T13:18:52;7.43;;;5.17;;
69172;SDS011;56280;49.662;8.408;2023-06-26T13:21:18;7.10;;;5.67;;
69172;SDS011;56280;49.662;8.408;2023-06-26T13:23:43;7.13;;;5.00;;
69172;SDS011;56280;49.662;8.408;2023-06-26T13:26:10;10.20;;;5.03;;
69172;SDS011;56280;49.662;8.408;2023-06-26T13:28:36;8.45;;;4.30;;
69172;SDS011;56280;49.662;8.408;2023-06-26T13:31:02;5.95;;;3.95;;
69172;SDS011;56280;49.662;8.408;2023-06-26T13:33:27;6.00;;;3.60;;
69172;SDS011;56280;49.662;8.408;2023-06-26T13:35:53;8.37;;;3.87;;
69172;SDS011;56280;49.662;8.408;2023-06-26T13:38:21;6.87;;;3.90;;
69172;SDS011;56280;49.662;8.408;2023-06-26T13:40:54;6.75;;;3.67;;
69172;SDS011;56280;49.662;8.408;2023-06-26T13:43:22;6.00;;;3.40;;
69172;SDS011;56280;49.662;8.408;2023-06-26T13:45:47;6.57;;;3.60;;
69172;SDS011;56280;49.662;8.408;2023-06-26T13:48:16;6.72;;;3.33;;
69172;SDS011;56280;49.662;8.408;2023-06-26T13:50:41;6.37;;;3.30;;
69172;SDS011;56280;49.662;8.408;2023-06-26T13:53:16;6.93;;;3.20;;
69172;SDS011;56280;49.662;8.408;2023-06-26T13:55:42;5.20;;;3.10;;
69172;SDS011;56280;49.662;8.408;2023-06-26T13:58:08;5.90;;;3.10;;
69172;SDS011;56280;49.662;8.408;2023-06-26T14:00:33;5.15;;;2.55;;
69172;SDS011;56280;49.662;8.408;2023-06-26T14:03:00;5.75;;;2.63;;
69172;SDS011;56280;49.662;8.408;2023-06-26T14:05:26;7.37;;;2.60;;
69172;SDS011;56280;49.662;8.408;2023-06-26T14:07:51;6.85;;;3.00;;
69172;SDS011;56280;49.662;8.408;2023-06-26T14:10:19;6.15;;;2.50;;
69172;SDS011;56280;49.662;8.408;2023-06-26T14:12:44;5.50;;;2.60;;
69172;SDS011;56280;49.662;8.408;2023-06-26T14:15:09;5.50;;;2.33;;
69172;SDS011;56280;49.662;8.408;2023-06-26T14:17:35;6.10;;;2.40;;
69172;SDS011;56280;49.662;8.408;2023-06-26T14:20:00;6.67;;;2.40;;
69172;SDS011;56280;49.662;8.408;2023-06-26T14:22:25;6.90;;;2.70;;
69172;SDS011;56280;49.662;8.408;2023-06-26T14:24:51;6.43;;;2.40;;
69172;SDS011;56280;49.662;8.408;2023-06-26T14:27:16;6.00;;;2.63;;
69172;SDS011;56280;49.662;8.408;2023-06-26T14:29:41;7.23;;;2.50;;
69172;SDS011;56280;49.662;8.408;2023-06-26T14:32:07;10.80;;;2.53;;
69172;SDS011;56280;49.662;8.408;2023-06-26T14:34:32;5.63;;;2.22;;
69172;SDS011;56280;49.662;8.408;2023-06-26T14:36:57;5.97;;;2.35;;
69172;SDS011;56280;49.662;8.408;2023-06-26T14:39:23;4.57;;;2.20;;
69172;SDS011;56280;49.662;8.408;2023-06-26T14:41:49;6.53;;;2.30;;
69172;SDS011;56280;49.662;8.408;2023-06-26T14:44:14;7.20;;;2.70;;
69172;SDS011;56280;49.662;8.408;2023-06-26T14:46:40;7.90;;;2.22;;
69172;SDS011;56280;49.662;8.408;2023-06-26T14:49:06;6.30;;;2.23;;
69172;SDS011;56280;49.662;8.408;2023-06-26T14:51:34;6.55;;;2.20;;
69172;SDS011;56280;49.662;8.408;2023-06-26T14:54:00;6.60;;;2.20;;
69172;SDS011;56280;49.662;8.408;2023-06-26T14:56:28;6.43;;;2.10;;
69172;SDS011;56280;49.662;8.408;2023-06-26T14:58:54;7.37;;;2.10;;
69172;SDS011;56280;49.662;8.408;2023-06-26T15:01:20;5.85;;;2.13;;
69172;SDS011;56280;49.662;8.408;2023-06-26T15:03:48;5.70;;;2.10;;
69172;SDS011;56280;49.662;8.408;2023-06-26T15:06:14;5.40;;;1.80;;
69172;SDS011;56280;49.662;8.408;2023-06-26T15:08:48;5.88;;;2.40;;
69172;SDS011;56280;49.662;8.408;2023-06-26T15:11:57;5.82;;;2.10;;
69172;SDS011;56280;49.662;8.408;2023-06-26T15:14:26;4.60;;;1.90;;
69172;SDS011;56280;49.662;8.408;2023-06-26T15:17:06;6.22;;;1.90;;
69172;SDS011;56280;49.662;8.408;2023-06-26T15:19:35;5.68;;;1.98;;
69172;SDS011;56280;49.662;8.408;2023-06-26T15:22:01;5.78;;;1.95;;
69172;SDS011;56280;49.662;8.408;2023-06-26T15:24:27;5.70;;;1.73;;
69172;SDS011;56280;49.662;8.408;2023-06-26T15:26:56;4.90;;;1.80;;
69172;SDS011;56280;49.662;8.408;2023-06-26T15:29:21;5.47;;;1.80;;
69172;SDS011;56280;49.662;8.408;2023-06-26T15:35:06;5.85;;;1.67;;